createdAt,value
2023-02-11T01:25:50.622Z,-5.35
2023-02-11T01:28:20.740Z,-4.92
2023-02-11T01:30:49.805Z,-4.87
2023-02-11T01:33:21.122Z,-4.88
2023-02-11T01:35:50.040Z,-4.91
2023-02-11T01:38:25.855Z,-4.97
2023-02-11T01:40:57.623Z,-5.05
2023-02-11T01:43:26.276Z,-5.13
2023-02-11T01:46:03.118Z,-5.21
2023-02-11T01:48:34.782Z,-5.30
2023-02-11T01:51:14.713Z,-5.40
2023-02-11T01:54:02.049Z,-5.49
2023-02-11T01:56:53.858Z,-5.57
2023-02-11T01:59:29.995Z,-5.65
2023-02-11T02:02:02.361Z,-5.73
2023-02-11T02:04:36.354Z,-5.78
2023-02-11T02:07:09.557Z,-5.85
2023-02-11T02:09:43.244Z,-5.91
2023-02-11T02:12:11.709Z,-5.95
2023-02-11T02:14:40.898Z,-5.91
2023-02-11T02:17:24.422Z,-5.82
2023-02-11T02:20:28.769Z,-5.70
2023-02-11T02:23:07.620Z,-5.56
2023-02-11T02:25:48.904Z,-5.50
2023-02-11T02:28:26.437Z,-5.48
2023-02-11T02:31:34.491Z,-5.49
2023-02-11T02:34:08.079Z,-5.52
2023-02-11T02:36:42.011Z,-5.55
2023-02-11T02:39:20.907Z,-5.59
2023-02-11T02:41:49.500Z,-5.64
2023-02-11T02:44:20.776Z,-5.68
2023-02-11T02:46:53.858Z,-5.74
2023-02-11T02:49:22.566Z,-5.80
2023-02-11T02:52:28.611Z,-5.85
2023-02-11T02:55:12.518Z,-5.91
2023-02-11T02:58:19.508Z,-5.98
2023-02-11T03:00:50.323Z,-6.05
2023-02-11T03:04:00.262Z,-6.08
2023-02-11T03:06:51.755Z,-6.02
2023-02-11T03:09:36.202Z,-5.91
2023-02-11T03:12:11.897Z,-5.85
2023-02-11T03:14:40.567Z,-5.79
2023-02-11T03:17:08.907Z,-5.76
2023-02-11T03:20:01.906Z,-5.79
2023-02-11T03:22:38.186Z,-5.86
2023-02-11T03:25:07.708Z,-5.90
2023-02-11T03:27:47.435Z,-5.97
2023-02-11T03:30:27.903Z,-6.04
2023-02-11T03:33:03.496Z,-6.11
2023-02-11T03:35:44.024Z,-6.19
2023-02-11T03:38:25.641Z,-6.29
2023-02-11T03:40:53.753Z,-6.38
2023-02-11T03:43:28.238Z,-6.47
2023-02-11T03:45:56.435Z,-6.53
2023-02-11T03:48:26.255Z,-6.50
2023-02-11T03:55:15.651Z,-6.23
2023-02-11T03:57:44.171Z,-6.16
2023-02-11T04:00:15.754Z,-6.15
2023-02-11T04:02:46.427Z,-6.20
2023-02-11T04:05:16.457Z,-6.27
2023-02-11T04:07:45.360Z,-6.37
2023-02-11T04:10:13.980Z,-6.44
2023-02-11T04:12:42.158Z,-6.50
2023-02-11T04:15:11.456Z,-6.60
2023-02-11T04:17:40.453Z,-6.71
2023-02-11T04:20:09.737Z,-6.85
2023-02-11T04:22:38.196Z,-6.95
2023-02-11T04:25:06.860Z,-7.02
2023-02-11T04:27:35.986Z,-7.02
2023-02-11T04:30:05.306Z,-6.95
2023-02-11T04:32:34.294Z,-6.83
2023-02-11T04:35:03.124Z,-6.70
2023-02-11T04:37:31.345Z,-6.61
2023-02-11T04:39:59.764Z,-6.57
2023-02-11T04:42:35.013Z,-6.53
2023-02-11T04:45:05.036Z,-6.51
2023-02-11T04:47:34.187Z,-6.52
2023-02-11T04:50:02.359Z,-6.53
2023-02-11T04:52:30.656Z,-6.55
2023-02-11T04:54:59.662Z,-6.57
2023-02-11T04:57:28.148Z,-6.58
2023-02-11T04:59:56.732Z,-6.60
2023-02-11T05:02:24.867Z,-6.60
2023-02-11T05:04:52.955Z,-6.60
2023-02-11T05:07:21.871Z,-6.53
2023-02-11T05:09:50.959Z,-6.40
2023-02-11T05:12:19.557Z,-6.26
2023-02-11T05:14:47.799Z,-6.12
2023-02-11T05:17:16.278Z,-5.99
2023-02-11T05:19:44.611Z,-5.93
2023-02-11T05:22:17.205Z,-5.92
2023-02-11T05:24:45.317Z,-5.97
2023-02-11T05:27:13.462Z,-6.02
2023-02-11T05:29:41.886Z,-6.12
2023-02-11T05:32:10.121Z,-6.23
2023-02-11T05:34:39.709Z,-6.33
2023-02-11T05:37:09.276Z,-6.41
2023-02-11T05:39:38.023Z,-6.48
2023-02-11T05:42:09.328Z,-6.52
2023-02-11T05:44:37.834Z,-6.58
2023-02-11T05:47:08.869Z,-6.62
2023-02-11T05:49:37.982Z,-6.62
2023-02-11T05:52:08.708Z,-6.55
2023-02-11T05:54:38.632Z,-6.44
2023-02-11T05:57:08.564Z,-6.33
2023-02-11T05:59:36.758Z,-6.25
2023-02-11T06:02:05.571Z,-6.21
2023-02-11T06:04:34.905Z,-6.19
2023-02-11T06:07:06.062Z,-6.16
2023-02-11T06:09:35.626Z,-6.16
2023-02-11T06:12:07.886Z,-6.16
2023-02-11T06:14:36.330Z,-6.15
2023-02-11T06:17:05.477Z,-6.15
2023-02-11T06:19:38.502Z,-6.14
2023-02-11T06:22:07.088Z,-6.13
2023-02-11T06:24:58.629Z,-6.11
2023-02-11T06:27:23.701Z,-6.10
2023-02-11T06:29:57.374Z,-6.08
2023-02-11T06:32:45.727Z,-6.06
2023-02-11T06:35:14.832Z,-5.97
2023-02-11T06:37:44.935Z,-5.81
2023-02-11T06:40:14.387Z,-5.63
2023-02-11T06:42:43.722Z,-5.42
2023-02-11T06:45:13.543Z,-5.25
2023-02-11T06:47:41.770Z,-5.15
2023-02-11T06:50:12.307Z,-5.09
2023-02-11T06:52:40.965Z,-5.01
2023-02-11T06:55:09.254Z,-4.92
2023-02-11T06:57:39.878Z,-4.82
2023-02-11T07:00:10.211Z,-4.75
2023-02-11T07:02:39.195Z,-4.70
2023-02-11T07:05:12.264Z,-4.67
2023-02-11T07:07:40.538Z,-4.65
2023-02-11T07:10:13.474Z,-4.60
2023-02-11T07:12:44.592Z,-4.56
2023-02-11T07:15:12.757Z,-4.52
2023-02-11T07:17:43.725Z,-4.47
2023-02-11T07:20:14.739Z,-4.42
2023-02-11T07:22:43.240Z,-4.35
2023-02-11T07:25:11.266Z,-4.30
2023-02-11T07:27:44.460Z,-4.24
2023-02-11T07:30:13.181Z,-4.20
2023-02-11T07:32:41.362Z,-4.14
2023-02-11T07:35:09.922Z,-4.08
2023-02-11T07:37:38.022Z,-4.03
2023-02-11T07:40:07.672Z,-4.01
2023-02-11T07:42:35.916Z,-4.01
2023-02-11T07:45:07.542Z,-4.05
2023-02-11T07:47:35.834Z,-4.12
2023-02-11T07:50:04.707Z,-4.08
2023-02-11T07:52:33.100Z,-3.94
2023-02-11T07:55:04.669Z,-3.82
2023-02-11T07:57:33.286Z,-3.72
2023-02-11T08:00:02.321Z,-3.65
2023-02-11T08:02:39.178Z,-3.57
2023-02-11T08:05:07.958Z,-3.48
2023-02-11T08:07:36.071Z,-3.46
2023-02-11T08:10:06.832Z,-3.49
2023-02-11T08:12:35.851Z,-3.46
2023-02-11T08:15:04.399Z,-3.40
2023-02-11T08:17:32.974Z,-3.37
2023-02-11T08:20:01.631Z,-3.40
2023-02-11T08:22:32.463Z,-3.46
2023-02-11T08:25:01.029Z,-3.50
2023-02-11T08:27:29.563Z,-3.49
2023-02-11T08:29:59.537Z,-3.43
2023-02-11T08:32:28.128Z,-3.33
2023-02-11T08:34:56.275Z,-3.19
2023-02-11T08:37:24.371Z,-3.11
2023-02-11T08:39:52.531Z,-3.02
2023-02-11T08:42:20.637Z,-2.94
2023-02-11T08:44:48.760Z,-2.82
2023-02-11T08:47:16.896Z,-2.69
2023-02-11T08:49:45.698Z,-2.55
2023-02-11T08:52:14.295Z,-2.39
2023-02-11T08:54:43.575Z,-2.22
2023-02-11T08:57:11.788Z,-2.06
2023-02-11T08:59:40.746Z,-1.91
2023-02-11T09:02:12.743Z,-1.78
2023-02-11T09:04:41.222Z,-1.63
2023-02-11T09:07:12.856Z,-1.47
2023-02-11T09:09:42.397Z,-1.32
2023-02-11T09:12:10.502Z,-1.19
2023-02-11T09:14:42.108Z,-1.05
2023-02-11T09:17:10.457Z,-0.92
2023-02-11T09:19:39.171Z,-0.77
2023-02-11T09:22:07.467Z,-0.65
2023-02-11T09:24:35.536Z,-0.58
2023-02-11T09:27:03.881Z,-0.52
2023-02-11T09:29:32.467Z,-0.42
2023-02-11T09:32:00.994Z,-0.35
2023-02-11T09:34:29.234Z,-0.28
2023-02-11T09:36:57.468Z,-0.21
2023-02-11T09:39:26.812Z,-0.13
2023-02-11T09:41:55.350Z,0.00
2023-02-11T09:44:25.411Z,0.17
2023-02-11T09:46:56.887Z,0.37
2023-02-11T09:49:31.532Z,0.57
2023-02-11T09:52:12.491Z,0.77
2023-02-11T09:54:59.508Z,0.97
2023-02-11T09:57:35.553Z,1.15
2023-02-11T10:00:27.858Z,1.27
2023-02-11T10:02:59.624Z,1.39
2023-02-11T10:05:36.557Z,1.46
2023-02-11T10:08:14.626Z,1.52
2023-02-11T10:10:53.158Z,1.57
2023-02-11T10:13:40.197Z,1.59
2023-02-11T10:16:20.720Z,1.60
2023-02-11T10:19:14.279Z,1.60
2023-02-11T10:22:03.511Z,1.65
2023-02-11T10:24:34.956Z,1.71
2023-02-11T10:27:27.346Z,1.78
2023-02-11T10:29:59.087Z,1.83
2023-02-11T10:32:39.941Z,1.86
2023-02-11T10:35:18.425Z,1.90
2023-02-11T10:37:46.702Z,1.87
2023-02-11T10:40:19.721Z,1.82
2023-02-11T10:42:54.341Z,1.85
2023-02-11T10:45:37.016Z,1.89
2023-02-11T10:48:20.397Z,1.93
2023-02-11T10:50:48.904Z,1.93
2023-02-11T10:53:24.542Z,1.92
2023-02-11T11:00:08.638Z,2.16
2023-02-11T11:02:39.266Z,2.18
2023-02-11T11:05:17.011Z,2.23
2023-02-11T11:08:06.131Z,2.28
2023-02-11T11:10:43.730Z,2.29
2023-02-11T11:13:33.340Z,2.31
2023-02-11T11:16:35.811Z,2.40
2023-02-11T11:19:07.019Z,2.49
2023-02-11T11:21:37.653Z,2.58
2023-02-11T11:24:06.059Z,2.66
2023-02-11T11:29:43.605Z,2.81
2023-02-11T11:32:27.659Z,2.89
2023-02-11T11:34:57.880Z,2.93
2023-02-11T11:37:30.972Z,2.97
2023-02-11T11:40:11.793Z,3.02
2023-02-11T11:42:45.963Z,3.07
2023-02-11T11:45:31.817Z,3.10
2023-02-11T11:48:04.261Z,3.12
2023-02-11T11:50:34.312Z,3.13
2023-02-11T11:53:42.754Z,3.14
2023-02-11T11:56:17.578Z,3.19
2023-02-11T11:58:47.370Z,3.25
2023-02-11T12:01:45.530Z,3.32
2023-02-11T12:04:43.362Z,3.38
2023-02-11T12:07:39.036Z,3.44
2023-02-11T12:10:30.171Z,3.51
2023-02-11T12:13:22.437Z,3.58
2023-02-11T12:16:13.888Z,3.60
2023-02-11T12:19:02.832Z,3.60
2023-02-11T12:22:02.247Z,3.59
2023-02-11T12:25:05.354Z,3.60
2023-02-11T12:27:49.612Z,3.61
2023-02-11T12:30:27.279Z,3.63
2023-02-11T12:33:08.802Z,3.66
2023-02-11T12:35:39.956Z,3.68
2023-02-11T12:38:24.120Z,3.69
2023-02-11T12:41:01.454Z,3.70
2023-02-11T12:43:43.342Z,3.70
2023-02-11T12:46:18.015Z,3.70
2023-02-11T12:49:16.195Z,3.69
2023-02-11T12:52:44.814Z,3.67
2023-02-11T12:55:28.567Z,3.65
2023-02-11T12:58:03.091Z,3.62
2023-02-11T13:00:41.188Z,3.57
2023-02-11T13:03:09.584Z,3.54
2023-02-11T13:05:55.470Z,3.53
2023-02-11T13:08:33.977Z,3.52
2023-02-11T13:11:15.175Z,3.51
2023-02-11T13:13:57.916Z,3.48
2023-02-11T13:16:41.799Z,3.45
2023-02-11T13:19:13.389Z,3.42
2023-02-11T13:21:48.125Z,3.41
2023-02-11T13:24:44.529Z,3.38
2023-02-11T13:27:27.316Z,3.34
2023-02-11T13:30:14.927Z,3.30
2023-02-11T13:33:46.243Z,3.27
2023-02-11T13:36:27.815Z,3.23
2023-02-11T13:39:05.550Z,3.21
2023-02-11T13:41:45.486Z,3.19
2023-02-11T13:44:19.338Z,3.16
2023-02-11T13:46:54.355Z,3.12
2023-02-11T13:49:42.549Z,3.08
2023-02-11T13:52:32.547Z,3.03
2023-02-11T13:55:28.116Z,2.96
2023-02-11T13:58:09.205Z,2.90
2023-02-11T14:00:39.092Z,2.86
2023-02-11T14:03:35.954Z,2.82
2023-02-11T16:15:58.630Z,0.62
2023-02-11T16:18:38.417Z,0.86
2023-02-11T16:21:19.110Z,0.89
2023-02-11T16:23:54.395Z,0.89
2023-02-11T16:26:29.594Z,0.89
2023-02-11T16:29:28.178Z,0.88
2023-02-11T16:32:15.533Z,0.85
2023-02-11T16:34:44.094Z,0.82
2023-02-11T16:37:15.217Z,0.81
2023-02-11T16:39:43.700Z,0.78
2023-02-11T16:42:14.977Z,0.74
2023-02-11T16:44:43.648Z,0.72
2023-02-11T16:47:31.519Z,0.69
2023-02-11T16:50:18.944Z,0.66
2023-02-11T16:52:47.322Z,0.64
2023-02-11T16:55:16.021Z,0.62
2023-02-11T16:57:47.288Z,0.61
2023-02-11T17:00:17.214Z,0.60
2023-02-11T17:02:46.389Z,0.60
2023-02-11T17:05:20.272Z,0.60
2023-02-11T17:07:50.164Z,0.61
2023-02-11T17:10:21.404Z,0.62
2023-02-11T17:12:51.542Z,0.63
2023-02-11T17:15:22.457Z,0.64
2023-02-11T17:17:51.407Z,0.65
2023-02-11T17:20:20.773Z,0.65
2023-02-11T17:22:48.912Z,0.67
2023-02-11T17:25:19.629Z,0.67
2023-02-11T17:27:54.616Z,0.69
2023-02-11T17:30:23.617Z,0.71
2023-02-11T17:32:52.945Z,0.72
2023-02-11T17:35:21.533Z,0.72
2023-02-11T17:37:49.964Z,0.74
2023-02-11T17:40:18.487Z,0.76
2023-02-11T17:42:47.004Z,0.79
2023-02-11T17:45:19.334Z,0.80
2023-02-11T17:47:49.669Z,0.81
2023-02-11T17:50:18.352Z,0.82
2023-02-11T17:52:46.575Z,0.83
2023-02-11T17:55:15.233Z,0.84
2023-02-11T17:57:43.705Z,0.86
2023-02-11T18:00:12.834Z,0.88
2023-02-11T18:02:42.928Z,0.91
2023-02-11T18:05:13.903Z,0.94
2023-02-11T18:07:44.643Z,0.97
2023-02-11T18:10:14.644Z,1.01
2023-02-11T18:12:44.813Z,1.05
2023-02-11T18:15:17.329Z,1.08
2023-02-11T18:17:48.009Z,1.11
2023-02-11T18:20:16.162Z,1.14
2023-02-11T18:22:45.178Z,1.18
2023-02-11T18:25:14.928Z,1.20
2023-02-11T18:27:43.259Z,1.23
2023-02-11T18:30:15.238Z,1.25
2023-02-11T18:32:44.657Z,1.28
2023-02-11T18:35:15.204Z,1.30
2023-02-11T18:37:45.786Z,1.31
2023-02-11T18:40:17.321Z,1.32
2023-02-11T18:42:45.809Z,1.34
2023-02-11T18:45:17.134Z,1.36
2023-02-11T18:47:45.255Z,1.37
2023-02-11T18:50:15.888Z,1.39
2023-02-11T18:52:44.533Z,1.40
2023-02-11T18:55:16.616Z,1.41
2023-02-11T18:57:50.339Z,1.42
2023-02-11T19:00:19.252Z,1.42
2023-02-11T19:02:48.246Z,1.43
2023-02-11T19:05:16.959Z,1.45
2023-02-11T19:07:50.158Z,1.46
2023-02-11T19:10:21.399Z,1.47
2023-02-11T19:12:51.098Z,1.48
2023-02-11T19:15:23.076Z,1.48
2023-02-11T19:17:54.470Z,1.49
2023-02-11T19:20:22.875Z,1.49
2023-02-11T19:22:51.532Z,1.49
2023-02-11T19:25:22.027Z,1.49
2023-02-11T19:27:50.756Z,1.50
2023-02-11T19:30:19.030Z,1.57
2023-02-11T19:32:52.484Z,1.69
2023-02-11T19:35:25.669Z,1.79
2023-02-11T19:37:55.229Z,1.83
2023-02-11T19:40:24.152Z,1.85
2023-02-11T19:42:53.734Z,1.87
2023-02-11T19:45:28.470Z,1.87
2023-02-11T19:48:03.626Z,1.86
2023-02-11T19:50:36.320Z,1.84
2023-02-11T19:53:08.281Z,1.81
2023-02-11T19:55:41.301Z,1.78
2023-02-11T19:58:13.985Z,1.74
2023-02-11T20:00:43.867Z,1.72
2023-02-11T20:03:12.443Z,1.70
2023-02-11T20:05:43.747Z,1.69
2023-02-11T20:08:18.843Z,1.68
2023-02-11T20:10:47.197Z,1.67
2023-02-11T20:13:20.903Z,1.65
2023-02-11T20:15:49.775Z,1.64
2023-02-11T20:18:18.181Z,1.63
2023-02-11T20:20:46.318Z,1.63
2023-02-11T20:23:14.469Z,1.70
2023-02-11T20:25:42.671Z,1.82
2023-02-11T20:28:11.200Z,1.89
2023-02-11T20:30:41.469Z,1.93
2023-02-11T20:33:14.700Z,1.95
2023-02-11T20:35:42.860Z,1.96
2023-02-11T20:38:11.235Z,1.96
2023-02-11T20:40:44.610Z,1.95
2023-02-11T20:43:16.091Z,1.94
2023-02-11T20:45:44.807Z,1.92
2023-02-11T20:48:13.987Z,1.91
2023-02-11T20:50:42.212Z,1.89
2023-02-11T20:53:11.196Z,1.88
2023-02-11T20:55:40.750Z,1.87
2023-02-11T20:58:12.057Z,1.85
2023-02-11T21:00:47.574Z,1.84
2023-02-11T21:03:16.180Z,1.83
2023-02-11T21:05:49.357Z,1.82
2023-02-11T21:08:19.206Z,1.80
2023-02-11T21:10:48.939Z,1.80
2023-02-11T21:13:22.404Z,1.79
2023-02-11T21:15:57.972Z,1.78
2023-02-11T21:18:27.029Z,1.78
2023-02-11T21:20:56.586Z,1.77
2023-02-11T21:23:29.320Z,1.77
2023-02-11T21:26:00.178Z,1.78
2023-02-11T21:28:28.793Z,1.77
2023-02-11T21:30:57.642Z,1.76
2023-02-11T21:33:27.174Z,1.76
2023-02-11T21:35:58.827Z,1.84
2023-02-11T21:38:31.656Z,1.97
2023-02-11T21:41:08.358Z,2.05
2023-02-11T21:43:41.750Z,2.10
2023-02-11T21:46:12.425Z,2.11
2023-02-11T21:48:41.651Z,2.11
2023-02-11T21:51:21.750Z,2.11
2023-02-11T21:53:56.136Z,2.08
2023-02-11T21:56:28.312Z,2.05
2023-02-11T21:58:59.633Z,2.04
2023-02-11T22:01:32.117Z,2.02
2023-02-11T22:04:01.460Z,2.01
2023-02-11T22:06:31.406Z,2.01
2023-02-11T22:09:04.819Z,2.01
2023-02-11T22:11:37.818Z,2.03
2023-02-11T22:14:10.691Z,2.14
2023-02-11T22:16:45.563Z,2.29
2023-02-11T22:19:19.177Z,2.40
2023-02-11T22:21:50.433Z,2.45
2023-02-11T22:24:20.997Z,2.49
2023-02-11T22:26:49.808Z,2.51
2023-02-11T22:29:20.889Z,2.51
2023-02-11T22:31:48.975Z,2.52
2023-02-11T22:34:20.219Z,2.52
2023-02-11T22:36:55.056Z,2.52
2023-02-11T22:39:25.916Z,2.51
2023-02-11T22:41:57.278Z,2.50
2023-02-11T22:44:27.717Z,2.51
2023-02-11T22:46:58.224Z,2.52
2023-02-11T22:49:33.371Z,2.60
2023-02-11T22:52:04.839Z,2.70
2023-02-11T22:54:36.133Z,2.76
2023-02-11T22:57:04.254Z,2.80
2023-02-11T22:59:35.589Z,2.81
2023-02-11T23:02:05.969Z,2.84
2023-02-11T23:04:37.746Z,2.84
2023-02-11T23:07:08.392Z,2.84
2023-02-11T23:09:36.888Z,2.83
2023-02-11T23:12:05.475Z,2.82
2023-02-11T23:14:37.292Z,2.82
2023-02-11T23:17:08.065Z,2.81
2023-02-11T23:19:38.934Z,2.78
2023-02-11T23:22:07.568Z,2.78
2023-02-11T23:24:44.391Z,2.83
2023-02-11T23:27:17.303Z,2.93
2023-02-11T23:29:47.583Z,2.98
2023-02-11T23:32:15.656Z,2.97
2023-02-11T23:34:45.933Z,2.95
2023-02-11T23:37:19.959Z,2.94
2023-02-11T23:39:48.047Z,2.91
2023-02-11T23:42:16.932Z,2.88
2023-02-11T23:44:47.574Z,2.84
2023-02-11T23:47:19.056Z,2.80
2023-02-11T23:49:47.294Z,2.76
2023-02-11T23:52:18.113Z,2.72
2023-02-11T23:54:48.257Z,2.69
2023-02-11T23:57:16.449Z,2.74
2023-02-11T23:59:48.969Z,2.84
